createdAt,value
2022-10-08T00:02:11.991Z,99.90
2022-10-08T00:07:24.448Z,99.90
2022-10-08T00:10:16.467Z,99.90
2022-10-08T00:12:44.004Z,99.90
2022-10-08T00:15:11.541Z,99.90
2022-10-08T00:18:11.861Z,99.90
2022-10-08T00:20:39.383Z,99.90
2022-10-08T00:23:42.531Z,99.90
2022-10-08T00:26:10.586Z,99.90
2022-10-08T00:28:43.630Z,99.90
2022-10-08T00:31:16.756Z,99.90
2022-10-08T00:33:55.037Z,99.90
2022-10-08T00:36:38.984Z,99.90
2022-10-08T00:39:10.710Z,99.90
2022-10-08T00:42:03.771Z,99.90
2022-10-08T00:44:54.716Z,99.90
2022-10-08T00:51:56.502Z,99.90
2022-10-08T00:55:13.389Z,99.90
2022-10-08T00:57:52.136Z,99.90
2022-10-08T01:00:23.993Z,99.90
2022-10-08T01:02:52.573Z,99.90
2022-10-08T01:09:42.800Z,99.90
2022-10-08T01:12:15.832Z,99.90
2022-10-08T01:14:51.628Z,99.90
2022-10-08T01:17:42.196Z,99.90
2022-10-08T01:20:30.515Z,99.90
2022-10-08T01:23:06.826Z,99.90
2022-10-08T01:26:12.675Z,99.90
2022-10-08T01:28:51.321Z,99.90
2022-10-08T01:31:47.627Z,99.90
2022-10-08T01:34:28.512Z,99.90
2022-10-08T01:36:57.790Z,99.90
2022-10-08T01:39:30.398Z,99.90
2022-10-08T01:41:59.952Z,99.90
2022-10-08T01:44:51.896Z,99.90
2022-10-08T01:47:23.877Z,99.90
2022-10-08T01:49:56.501Z,99.90
2022-10-08T01:52:30.516Z,99.90
2022-10-08T01:55:43.122Z,99.90
2022-10-08T01:58:33.758Z,99.90
2022-10-08T02:01:13.347Z,99.90
2022-10-08T02:07:42.521Z,99.90
2022-10-08T02:10:26.157Z,99.90
2022-10-08T02:12:53.903Z,99.90
2022-10-08T02:15:59.957Z,99.90
2022-10-08T02:19:00.220Z,99.90
2022-10-08T02:21:28.620Z,99.90
2022-10-08T02:24:21.341Z,99.90
2022-10-08T02:26:53.295Z,99.90
2022-10-08T02:29:29.107Z,99.90
2022-10-08T02:32:01.333Z,99.90
2022-10-08T02:34:39.855Z,99.90
2022-10-08T02:37:34.772Z,99.90
2022-10-08T02:40:13.755Z,99.90
2022-10-08T02:42:46.799Z,99.90
2022-10-08T02:45:23.114Z,99.90
2022-10-08T02:47:55.803Z,99.90
2022-10-08T02:50:32.882Z,99.90
2022-10-08T02:53:01.595Z,99.90
2022-10-08T02:59:55.285Z,99.90
2022-10-08T03:02:37.075Z,99.90
2022-10-08T03:05:31.536Z,99.90
2022-10-08T03:08:06.086Z,99.90
2022-10-08T03:10:37.285Z,99.90
2022-10-08T03:13:07.865Z,99.90
2022-10-08T03:15:36.896Z,99.90
2022-10-08T03:18:32.169Z,99.90
2022-10-08T03:21:01.446Z,99.90
2022-10-08T03:23:28.712Z,99.90
2022-10-08T03:26:40.133Z,99.90
2022-10-08T03:29:34.954Z,99.90
2022-10-08T03:32:44.567Z,99.90
2022-10-08T03:35:14.649Z,99.90
2022-10-08T03:38:52.028Z,99.90
2022-10-08T03:42:03.647Z,99.90
2022-10-08T03:49:04.803Z,99.90
2022-10-08T03:51:38.301Z,99.90
2022-10-08T03:54:08.009Z,99.90
2022-10-08T03:56:35.246Z,99.90
2022-10-08T03:59:03.738Z,99.90
2022-10-08T04:02:51.518Z,99.90
2022-10-08T04:05:26.252Z,99.90
2022-10-08T04:08:11.811Z,99.90
2022-10-08T04:10:39.078Z,99.90
2022-10-08T04:13:12.814Z,99.90
2022-10-08T04:15:43.898Z,99.90
2022-10-08T04:18:13.792Z,99.90
2022-10-08T04:20:44.816Z,99.90
2022-10-08T04:23:27.025Z,99.90
2022-10-08T04:30:24.712Z,99.90
2022-10-08T04:32:57.087Z,99.90
2022-10-08T04:35:24.697Z,99.90
2022-10-08T04:37:52.018Z,99.90
2022-10-08T04:40:22.144Z,99.90
2022-10-08T04:42:52.272Z,99.90
2022-10-08T04:45:19.639Z,99.90
2022-10-08T04:47:53.966Z,99.90
2022-10-08T04:50:55.232Z,99.90
2022-10-08T04:54:01.071Z,99.90
2022-10-08T04:56:36.157Z,99.90
2022-10-08T04:59:28.460Z,99.90
2022-10-08T05:02:35.959Z,99.90
2022-10-08T05:05:03.458Z,99.90
2022-10-08T05:07:30.867Z,99.90
2022-10-08T05:10:49.369Z,99.90
2022-10-08T05:13:16.757Z,99.90
2022-10-08T05:15:51.722Z,99.90
2022-10-08T05:18:20.477Z,99.90
2022-10-08T05:20:47.766Z,99.90
2022-10-08T05:23:42.965Z,99.90
2022-10-08T05:29:05.255Z,99.90
2022-10-08T05:31:33.176Z,99.90
2022-10-08T05:34:15.101Z,99.90
2022-10-08T05:37:13.574Z,99.90
2022-10-08T05:39:43.716Z,99.90
2022-10-08T05:45:36.044Z,99.90
2022-10-08T05:48:05.918Z,99.90
2022-10-08T05:50:36.552Z,99.90
2022-10-08T05:54:16.663Z,99.90
2022-10-08T05:56:44.519Z,99.90
2022-10-08T05:59:17.006Z,99.90
2022-10-08T06:01:44.666Z,99.90
2022-10-08T06:07:27.781Z,99.90
2022-10-08T06:09:55.204Z,99.90
2022-10-08T06:12:23.641Z,99.90
2022-10-08T06:14:52.933Z,99.90
2022-10-08T06:17:22.581Z,99.90
2022-10-08T06:19:49.867Z,99.90
2022-10-08T06:22:17.356Z,99.90
2022-10-08T06:25:16.765Z,99.90
2022-10-08T06:27:53.414Z,99.90
2022-10-08T06:30:20.670Z,99.90
2022-10-08T06:32:47.999Z,99.90
2022-10-08T06:36:23.362Z,99.90
2022-10-08T06:39:58.996Z,99.90
2022-10-08T06:42:52.398Z,99.90
2022-10-08T06:45:20.945Z,99.90
2022-10-08T06:48:13.636Z,99.90
2022-10-08T06:51:38.520Z,99.90
2022-10-08T06:58:35.379Z,99.90
2022-10-08T07:01:06.854Z,99.90
2022-10-08T07:03:35.042Z,99.90
2022-10-08T07:06:05.126Z,99.90
2022-10-08T07:09:10.293Z,99.90
2022-10-08T07:11:41.150Z,99.90
2022-10-08T07:14:08.449Z,99.90
2022-10-08T07:16:35.894Z,99.90
2022-10-08T07:19:03.424Z,99.90
2022-10-08T07:21:31.034Z,99.90
2022-10-08T07:26:54.441Z,99.90
2022-10-08T07:29:46.989Z,99.90
2022-10-08T07:35:48.608Z,99.90
2022-10-08T07:38:19.667Z,99.90
2022-10-08T07:40:48.599Z,99.90
2022-10-08T07:43:19.836Z,99.90
2022-10-08T07:46:28.953Z,99.90
2022-10-08T07:48:59.519Z,99.90
2022-10-08T07:51:28.280Z,99.90
2022-10-08T07:54:19.396Z,99.90
2022-10-08T07:56:47.177Z,99.90
2022-10-08T07:59:41.327Z,99.90
2022-10-08T08:02:09.473Z,99.90
2022-10-08T08:04:36.738Z,99.90
2022-10-08T08:07:04.462Z,99.90
2022-10-08T08:13:04.501Z,99.90
2022-10-08T08:15:31.772Z,99.90
2022-10-08T08:18:53.312Z,99.90
2022-10-08T08:21:26.326Z,99.90
2022-10-08T08:23:54.343Z,99.90
2022-10-08T08:26:37.559Z,99.90
2022-10-08T08:31:56.534Z,99.90
2022-10-08T08:34:24.873Z,99.90
2022-10-08T08:48:12.106Z,99.90
2022-10-08T08:50:45.475Z,99.90
2022-10-08T08:53:15.318Z,99.90
2022-10-08T08:55:45.227Z,99.70
2022-10-08T08:58:34.421Z,99.90
2022-10-08T09:01:17.318Z,99.80
2022-10-08T09:03:58.743Z,99.50
2022-10-08T09:06:26.149Z,99.40
2022-10-08T09:09:22.497Z,99.50
2022-10-08T09:11:52.125Z,99.90
2022-10-08T09:14:42.220Z,99.50
2022-10-08T09:17:28.037Z,99.00
2022-10-08T09:19:55.356Z,98.70
2022-10-08T09:22:26.893Z,99.20
2022-10-08T09:25:03.242Z,99.50
2022-10-08T09:27:50.593Z,99.60
2022-10-08T09:34:10.337Z,99.40
2022-10-08T09:37:20.647Z,98.70
2022-10-08T09:40:12.595Z,98.50
2022-10-08T09:42:40.593Z,98.20
2022-10-08T09:46:12.080Z,98.10
2022-10-08T09:55:18.365Z,98.70
2022-10-08T09:57:48.432Z,99.10
2022-10-08T10:00:44.681Z,99.30
2022-10-08T10:03:20.023Z,99.30
2022-10-08T10:05:52.581Z,99.40
2022-10-08T10:08:48.280Z,99.30
2022-10-08T10:11:26.287Z,99.60
2022-10-08T10:13:54.849Z,99.30
2022-10-08T10:16:44.742Z,99.30
2022-10-08T10:19:24.625Z,99.30
2022-10-08T10:22:23.301Z,99.10
2022-10-08T10:29:37.954Z,98.70
2022-10-08T10:32:32.394Z,98.90
2022-10-08T10:35:12.933Z,99.20
2022-10-08T10:41:14.301Z,99.30
2022-10-08T10:44:14.044Z,99.90
2022-10-08T10:53:07.207Z,99.90
2022-10-08T10:58:44.485Z,99.50
2022-10-08T11:01:19.506Z,99.80
2022-10-08T11:03:52.659Z,99.50
2022-10-08T11:06:40.745Z,99.90
2022-10-08T11:10:17.170Z,99.90
2022-10-08T11:13:10.872Z,99.90
2022-10-08T11:16:37.849Z,99.90
2022-10-08T11:19:10.503Z,99.90
2022-10-08T11:21:59.169Z,99.90
2022-10-08T11:24:55.353Z,99.90
2022-10-08T11:27:54.766Z,99.90
2022-10-08T11:30:43.097Z,99.90
2022-10-08T11:33:27.755Z,99.90
2022-10-08T11:36:18.638Z,99.90
2022-10-08T11:39:25.938Z,99.90
2022-10-08T11:42:27.785Z,99.90
2022-10-08T11:44:55.234Z,99.90
2022-10-08T11:47:48.670Z,99.90
2022-10-08T11:50:33.938Z,99.90
2022-10-08T11:53:10.353Z,99.90
2022-10-08T11:55:38.541Z,99.90
2022-10-08T11:58:19.884Z,99.90
2022-10-08T12:00:48.140Z,99.90
2022-10-08T12:03:31.374Z,99.90
2022-10-08T12:06:15.686Z,99.90
2022-10-08T12:08:52.884Z,99.90
2022-10-08T12:11:32.474Z,99.90
2022-10-08T12:14:12.212Z,99.70
2022-10-08T12:16:48.597Z,99.50
2022-10-08T12:19:38.847Z,99.60
2022-10-08T12:22:15.197Z,99.00
2022-10-08T12:24:50.254Z,99.90
2022-10-08T12:27:18.197Z,99.80
2022-10-08T12:29:54.891Z,99.90
2022-10-08T12:32:24.485Z,99.90
2022-10-08T12:34:52.755Z,99.70
2022-10-08T12:37:50.506Z,99.90
2022-10-08T12:40:31.409Z,99.80
2022-10-08T12:43:31.279Z,99.30
2022-10-08T12:46:48.110Z,98.90
2022-10-08T12:49:37.600Z,99.20
2022-10-08T12:52:12.009Z,99.30
2022-10-08T12:54:48.963Z,99.00
2022-10-08T12:57:23.834Z,98.80
2022-10-08T12:59:52.028Z,99.50
2022-10-08T13:02:41.791Z,99.60
2022-10-08T13:05:29.846Z,99.60
2022-10-08T13:07:58.421Z,99.20
2022-10-08T13:10:28.409Z,98.40
2022-10-08T13:13:04.087Z,98.20
2022-10-08T13:15:33.438Z,98.40
2022-10-08T13:18:23.947Z,99.00
2022-10-08T13:20:59.789Z,99.30
2022-10-08T13:23:39.676Z,99.20
2022-10-08T13:26:39.242Z,99.00
2022-10-08T13:29:21.922Z,98.70
2022-10-08T13:32:04.414Z,97.90
2022-10-08T13:34:55.950Z,98.00
2022-10-08T13:37:23.198Z,98.60
2022-10-08T13:40:06.249Z,98.90
2022-10-08T13:42:58.569Z,98.80
2022-10-08T13:45:29.119Z,99.10
2022-10-08T13:47:57.293Z,98.80
2022-10-08T13:50:34.754Z,98.90
2022-10-08T13:53:02.211Z,99.00
2022-10-08T13:55:36.985Z,98.70
2022-10-08T13:58:06.373Z,99.00
2022-10-08T14:00:36.848Z,98.40
2022-10-08T14:03:04.358Z,98.70
2022-10-08T14:05:41.420Z,98.90
2022-10-08T14:08:23.294Z,98.80
2022-10-08T14:11:00.382Z,98.60
2022-10-08T14:14:02.495Z,98.30
2022-10-08T14:16:34.435Z,97.70
2022-10-08T14:19:03.623Z,97.90
2022-10-08T14:21:33.196Z,97.70
2022-10-08T14:24:00.465Z,98.00
2022-10-08T14:26:28.250Z,98.10
2022-10-08T14:28:55.571Z,98.00
2022-10-08T14:31:24.991Z,97.60
2022-10-08T14:33:55.177Z,97.10
2022-10-08T14:36:35.587Z,97.40
2022-10-08T14:39:04.554Z,97.80
2022-10-08T14:42:07.097Z,97.30
2022-10-08T14:44:34.295Z,97.90
2022-10-08T14:47:01.702Z,97.90
2022-10-08T14:49:28.957Z,98.00
2022-10-08T14:51:56.574Z,98.00
2022-10-08T14:54:28.018Z,98.00
2022-10-08T14:56:55.306Z,97.60
2022-10-08T14:59:27.081Z,97.60
2022-10-08T15:02:01.512Z,98.20
2022-10-08T15:04:34.706Z,98.10
2022-10-08T15:10:23.539Z,98.50
2022-10-08T15:12:51.178Z,97.90
2022-10-08T15:15:20.964Z,98.50
2022-10-08T15:17:48.467Z,98.20
2022-10-08T15:20:16.222Z,98.30
2022-10-08T15:22:43.814Z,98.20
2022-10-08T15:25:11.193Z,98.10
2022-10-08T15:27:38.478Z,98.20
2022-10-08T15:30:06.718Z,98.00
2022-10-08T15:32:34.188Z,98.00
2022-10-08T15:35:01.378Z,98.10
2022-10-08T15:37:28.555Z,98.40
2022-10-08T15:39:55.735Z,98.60
2022-10-08T15:42:36.429Z,98.80
2022-10-08T15:45:04.066Z,99.20
2022-10-08T15:47:31.247Z,99.30
2022-10-08T15:49:58.503Z,99.50
2022-10-08T15:52:25.843Z,99.30
2022-10-08T15:54:53.173Z,99.30
2022-10-08T15:57:23.110Z,99.40
2022-10-08T15:59:50.552Z,99.60
2022-10-08T16:02:18.615Z,99.80
2022-10-08T16:04:47.064Z,99.90
2022-10-08T16:07:14.420Z,99.80
2022-10-08T16:09:41.663Z,99.70
2022-10-08T16:12:08.925Z,99.70
2022-10-08T16:14:36.251Z,99.60
2022-10-08T16:17:03.501Z,99.80
2022-10-08T16:19:30.889Z,99.80
2022-10-08T16:21:58.728Z,99.70
2022-10-08T16:24:26.072Z,99.60
2022-10-08T16:26:53.446Z,99.80
2022-10-08T16:29:21.349Z,99.80
2022-10-08T16:31:51.710Z,99.90
2022-10-08T16:34:24.049Z,99.90
2022-10-08T16:36:51.485Z,99.90
2022-10-08T16:39:22.161Z,99.90
2022-10-08T16:41:49.810Z,99.90
2022-10-08T16:44:19.622Z,99.90
2022-10-08T16:46:50.438Z,99.90
2022-10-08T16:49:29.205Z,99.90
2022-10-08T16:52:08.047Z,99.90
2022-10-08T16:54:35.457Z,99.90
2022-10-08T16:57:02.916Z,99.90
2022-10-08T16:59:57.524Z,99.90
2022-10-08T17:02:26.143Z,99.90
2022-10-08T17:04:56.779Z,99.90
2022-10-08T17:07:26.360Z,99.90
2022-10-08T17:09:53.598Z,99.90
2022-10-08T17:12:22.031Z,99.90
2022-10-08T17:14:49.344Z,99.90
2022-10-08T17:17:16.632Z,99.90
2022-10-08T17:19:44.794Z,99.90
2022-10-08T17:22:16.131Z,99.90
2022-10-08T17:24:43.799Z,99.90
2022-10-08T17:27:13.274Z,99.90
2022-10-08T17:30:06.286Z,99.90
2022-10-08T17:32:33.627Z,99.90
2022-10-08T17:35:03.989Z,99.90
2022-10-08T17:37:31.247Z,99.90
2022-10-08T17:39:58.487Z,99.90
2022-10-08T17:42:25.868Z,99.90
2022-10-08T17:44:53.219Z,99.90
2022-10-08T17:47:20.420Z,99.90
2022-10-08T17:49:47.652Z,99.90
2022-10-08T17:52:14.879Z,99.90
2022-10-08T17:54:42.101Z,99.90
2022-10-08T17:57:09.336Z,99.90
2022-10-08T17:59:37.114Z,99.90
2022-10-08T18:02:04.564Z,99.90
2022-10-08T18:04:32.018Z,99.90
2022-10-08T18:07:03.280Z,99.90
2022-10-08T18:09:30.929Z,99.90
2022-10-08T18:11:58.226Z,99.90
2022-10-08T18:14:25.406Z,99.90
2022-10-08T18:16:52.897Z,99.90
2022-10-08T18:19:20.184Z,99.90
2022-10-08T18:21:47.465Z,99.90
2022-10-08T18:24:15.371Z,99.90
2022-10-08T18:26:43.148Z,99.90
2022-10-08T18:29:12.537Z,99.90
2022-10-08T18:31:46.792Z,99.90
2022-10-08T18:34:16.998Z,99.90
2022-10-08T18:36:45.218Z,99.90
2022-10-08T18:39:18.926Z,99.90
2022-10-08T18:41:50.710Z,99.90
2022-10-08T18:44:21.321Z,99.90
2022-10-08T18:46:48.732Z,99.90
2022-10-08T18:49:24.151Z,99.90
2022-10-08T18:51:51.473Z,99.90
2022-10-08T18:54:18.725Z,99.90
2022-10-08T18:56:46.111Z,99.90
2022-10-08T18:59:15.249Z,99.90
2022-10-08T19:01:47.498Z,99.90
2022-10-08T19:04:20.834Z,99.90
2022-10-08T19:06:49.674Z,99.90
2022-10-08T19:09:17.176Z,99.90
2022-10-08T19:11:49.970Z,99.90
2022-10-08T19:14:19.682Z,99.90
2022-10-08T19:16:47.869Z,99.90
2022-10-08T19:19:23.679Z,99.90
2022-10-08T19:21:51.932Z,99.90
2022-10-08T19:24:22.963Z,99.90
2022-10-08T19:26:50.706Z,99.90
2022-10-08T19:29:21.164Z,99.90
2022-10-08T19:31:52.053Z,99.90
2022-10-08T19:34:23.201Z,99.90
2022-10-08T19:36:50.893Z,99.90
2022-10-08T19:39:22.109Z,99.90
2022-10-08T19:41:50.272Z,99.90
2022-10-08T19:44:18.289Z,99.90
2022-10-08T19:46:46.536Z,99.90
2022-10-08T19:49:14.697Z,99.90
2022-10-08T19:51:42.406Z,99.90
2022-10-08T19:54:10.010Z,99.90
2022-10-08T19:56:37.579Z,99.90
2022-10-08T19:59:05.602Z,99.90
2022-10-08T20:01:35.327Z,99.90
2022-10-08T20:04:05.012Z,99.90
2022-10-08T20:06:35.542Z,99.90
2022-10-08T20:09:04.105Z,99.90
2022-10-08T20:11:32.594Z,99.90
2022-10-08T20:14:00.328Z,99.90
2022-10-08T20:16:30.592Z,99.90
2022-10-08T20:19:03.827Z,99.90
2022-10-08T20:21:33.462Z,99.90
2022-10-08T20:24:01.763Z,99.90
2022-10-08T20:26:34.644Z,99.90
2022-10-08T20:29:05.161Z,99.90
2022-10-08T20:31:38.745Z,99.90
2022-10-08T20:34:10.138Z,99.90
2022-10-08T20:36:37.428Z,99.90
2022-10-08T20:39:05.431Z,99.90
2022-10-08T20:41:32.862Z,99.90
2022-10-08T20:44:02.403Z,99.90
2022-10-08T20:46:31.211Z,99.90
2022-10-08T20:48:58.927Z,99.90
2022-10-08T20:51:27.566Z,99.90
2022-10-08T20:54:04.368Z,99.90
2022-10-08T20:56:38.551Z,99.90
2022-10-08T20:59:08.127Z,99.90
2022-10-08T21:01:38.013Z,99.90
2022-10-08T21:04:06.361Z,99.90
2022-10-08T21:06:39.336Z,99.90
2022-10-08T21:09:07.065Z,99.90
2022-10-08T21:11:35.018Z,99.90
2022-10-08T21:14:03.569Z,99.90
2022-10-08T21:16:33.628Z,99.90
2022-10-08T21:19:03.875Z,99.90
2022-10-08T21:21:32.539Z,99.90
2022-10-08T21:24:00.230Z,99.90
2022-10-08T21:26:33.288Z,99.90
2022-10-08T21:29:02.815Z,99.90
2022-10-08T21:31:32.431Z,99.90
2022-10-08T21:33:59.859Z,99.90
2022-10-08T21:36:31.815Z,99.90
2022-10-08T21:39:00.521Z,99.90
2022-10-08T21:41:33.258Z,99.90
2022-10-08T21:44:02.649Z,99.90
2022-10-08T21:46:32.409Z,99.90
2022-10-08T21:49:02.798Z,99.90
2022-10-08T21:51:31.655Z,99.90
2022-10-08T21:54:01.541Z,99.90
2022-10-08T21:56:31.491Z,99.90
2022-10-08T21:59:01.221Z,99.90
2022-10-08T22:01:41.177Z,99.90
2022-10-08T22:04:17.258Z,99.90
2022-10-08T22:06:47.866Z,99.90
2022-10-08T22:09:18.805Z,99.90
2022-10-08T22:11:46.450Z,99.90
2022-10-08T22:14:14.074Z,99.90
2022-10-08T22:16:41.453Z,99.90
2022-10-08T22:19:09.144Z,99.90
2022-10-08T22:21:36.696Z,99.90
2022-10-08T22:24:04.418Z,99.90
2022-10-08T22:26:37.354Z,99.90
2022-10-08T22:29:05.887Z,99.90
2022-10-08T22:31:34.028Z,99.90
2022-10-08T22:34:01.534Z,99.90
2022-10-08T22:36:31.642Z,99.90
2022-10-08T22:38:59.698Z,99.90
2022-10-08T22:41:29.706Z,99.90
2022-10-08T22:43:57.384Z,99.90
2022-10-08T22:46:29.470Z,99.90
2022-10-08T22:49:01.809Z,99.90
2022-10-08T22:51:29.814Z,99.90
2022-10-08T22:53:57.416Z,99.90
2022-10-08T22:56:27.735Z,99.90
2022-10-08T22:58:55.160Z,99.90
2022-10-08T23:01:24.311Z,99.90
2022-10-08T23:03:54.495Z,99.90
2022-10-08T23:06:34.643Z,99.90
2022-10-08T23:09:07.789Z,99.90
2022-10-08T23:11:35.549Z,99.90
2022-10-08T23:14:03.014Z,99.90
2022-10-08T23:16:32.169Z,99.90
2022-10-08T23:19:05.679Z,99.90
2022-10-08T23:21:33.886Z,99.90
2022-10-08T23:24:01.513Z,99.90
2022-10-08T23:26:28.928Z,99.90
2022-10-08T23:28:58.703Z,99.90
2022-10-08T23:31:28.994Z,99.90
2022-10-08T23:33:57.439Z,99.90
2022-10-08T23:36:27.785Z,99.90
2022-10-08T23:38:56.432Z,99.90
2022-10-08T23:41:24.381Z,99.90
2022-10-08T23:43:52.639Z,99.90
2022-10-08T23:46:22.520Z,99.90
2022-10-08T23:48:51.058Z,99.90
2022-10-08T23:51:19.709Z,99.90
2022-10-08T23:53:47.988Z,99.90
2022-10-08T23:56:15.336Z,99.90
2022-10-08T23:58:42.584Z,99.90
